Spencer, Indiana
Current Conditions -  °F | °C
As of 3:04 PM on Monday 24 Nov 2014 (Local Time) from KBMG Reporting Station
Overcast Overcast  
Wind Chill: 31°   Ceiling: 2800
Heat Index: 41°   Visibility: 10mi
Dew Point: 31°   Wind: 23mph
Humidity: 67%   Direction: 250°WSW
Pressure: 29.69"   Gusts: 35mph
Location:  39.29°N, 86.76°W
Report Text: KBMG 242004Z 25020G30KT 10SM BKN028 OVC038 05/M01 A2969 RMK AO2 PK WND 23030/2004 PRESRR T00501006
Loading
Personal Weather Stations






























Interactive Weather Map New forecast layout! Learn more

10-Day Weather Forecast

Advertisements
Track Severe Weather on mobile